sensor_id;sensor_type;location;lat;lon;timestamp;temperature;humidity
41630;DHT22;27322;49.488;8.480;2023-04-03T00:00:41;7.50;99.90
41630;DHT22;27322;49.488;8.480;2023-04-03T00:03:07;7.50;99.90
41630;DHT22;27322;49.488;8.480;2023-04-03T00:05:33;7.40;99.90
41630;DHT22;27322;49.488;8.480;2023-04-03T00:07:58;7.40;99.90
41630;DHT22;27322;49.488;8.480;2023-04-03T00:10:24;7.40;99.90
41630;DHT22;27322;49.488;8.480;2023-04-03T00:12:49;7.40;99.90
41630;DHT22;27322;49.488;8.480;2023-04-03T00:15:15;7.40;99.90
41630;DHT22;27322;49.488;8.480;2023-04-03T00:17:41;7.30;99.90
41630;DHT22;27322;49.488;8.480;2023-04-03T00:20:07;7.40;99.90
41630;DHT22;27322;49.488;8.480;2023-04-03T00:22:33;7.30;99.90
41630;DHT22;27322;49.488;8.480;2023-04-03T00:24:59;7.30;99.90
41630;DHT22;27322;49.488;8.480;2023-04-03T00:27:24;7.30;99.90
41630;DHT22;27322;49.488;8.480;2023-04-03T00:29:50;7.30;99.90
41630;DHT22;27322;49.488;8.480;2023-04-03T00:32:16;7.20;99.90
41630;DHT22;27322;49.488;8.480;2023-04-03T00:34:41;7.20;99.90
41630;DHT22;27322;49.488;8.480;2023-04-03T00:37:07;7.20;99.90
41630;DHT22;27322;49.488;8.480;2023-04-03T00:39:32;7.20;99.90
41630;DHT22;27322;49.488;8.480;2023-04-03T00:41:58;7.20;99.90
41630;DHT22;27322;49.488;8.480;2023-04-03T00:46:59;7.20;99.90
41630;DHT22;27322;49.488;8.480;2023-04-03T00:49:25;7.20;99.90
41630;DHT22;27322;49.488;8.480;2023-04-03T00:51:52;7.20;99.90
41630;DHT22;27322;49.488;8.480;2023-04-03T00:54:18;7.10;99.90
41630;DHT22;27322;49.488;8.480;2023-04-03T00:56:44;7.10;99.90
41630;DHT22;27322;49.488;8.480;2023-04-03T00:59:11;7.10;99.90
41630;DHT22;27322;49.488;8.480;2023-04-03T01:01:38;7.10;99.90
41630;DHT22;27322;49.488;8.480;2023-04-03T01:04:04;7.10;99.90
41630;DHT22;27322;49.488;8.480;2023-04-03T01:06:35;7.10;99.90
41630;DHT22;27322;49.488;8.480;2023-04-03T01:09:02;7.00;99.90
41630;DHT22;27322;49.488;8.480;2023-04-03T01:11:28;7.00;99.90
41630;DHT22;27322;49.488;8.480;2023-04-03T01:13:54;7.00;99.90
41630;DHT22;27322;49.488;8.480;2023-04-03T01:16:20;7.00;99.90
41630;DHT22;27322;49.488;8.480;2023-04-03T01:18:46;7.00;99.90
41630;DHT22;27322;49.488;8.480;2023-04-03T01:24:16;7.00;99.90
41630;DHT22;27322;49.488;8.480;2023-04-03T01:26:43;7.00;99.90
41630;DHT22;27322;49.488;8.480;2023-04-03T01:29:10;7.00;99.90
41630;DHT22;27322;49.488;8.480;2023-04-03T01:31:54;7.00;99.90
41630;DHT22;27322;49.488;8.480;2023-04-03T01:34:20;7.00;99.90
41630;DHT22;27322;49.488;8.480;2023-04-03T01:36:46;6.90;99.90
41630;DHT22;27322;49.488;8.480;2023-04-03T01:39:12;7.00;99.90
41630;DHT22;27322;49.488;8.480;2023-04-03T01:41:38;6.90;99.90
41630;DHT22;27322;49.488;8.480;2023-04-03T01:44:03;6.90;99.90
41630;DHT22;27322;49.488;8.480;2023-04-03T01:46:29;6.90;99.90
41630;DHT22;27322;49.488;8.480;2023-04-03T01:48:55;6.90;99.90
41630;DHT22;27322;49.488;8.480;2023-04-03T01:51:21;6.90;99.90
41630;DHT22;27322;49.488;8.480;2023-04-03T01:53:47;6.90;99.90
41630;DHT22;27322;49.488;8.480;2023-04-03T01:56:12;6.80;99.90
41630;DHT22;27322;49.488;8.480;2023-04-03T01:58:38;6.80;99.90
41630;DHT22;27322;49.488;8.480;2023-04-03T02:01:04;6.80;99.90
41630;DHT22;27322;49.488;8.480;2023-04-03T02:03:29;6.80;99.90
41630;DHT22;27322;49.488;8.480;2023-04-03T02:05:56;6.80;99.90
41630;DHT22;27322;49.488;8.480;2023-04-03T02:08:22;6.80;99.90
41630;DHT22;27322;49.488;8.480;2023-04-03T02:10:49;6.70;99.90
41630;DHT22;27322;49.488;8.480;2023-04-03T02:13:15;6.70;99.90
41630;DHT22;27322;49.488;8.480;2023-04-03T02:15:41;6.70;99.90
41630;DHT22;27322;49.488;8.480;2023-04-03T02:18:07;6.70;99.90
41630;DHT22;27322;49.488;8.480;2023-04-03T02:20:32;6.70;99.90
41630;DHT22;27322;49.488;8.480;2023-04-03T02:22:59;6.60;99.90
41630;DHT22;27322;49.488;8.480;2023-04-03T02:25:24;6.60;99.90
41630;DHT22;27322;49.488;8.480;2023-04-03T02:27:50;6.60;99.90
41630;DHT22;27322;49.488;8.480;2023-04-03T02:30:16;6.60;99.90
41630;DHT22;27322;49.488;8.480;2023-04-03T02:32:42;6.50;99.90
41630;DHT22;27322;49.488;8.480;2023-04-03T02:35:09;6.50;99.90
41630;DHT22;27322;49.488;8.480;2023-04-03T02:37:35;6.50;99.90
41630;DHT22;27322;49.488;8.480;2023-04-03T02:40:01;6.50;99.90
41630;DHT22;27322;49.488;8.480;2023-04-03T02:42:27;6.50;99.90
41630;DHT22;27322;49.488;8.480;2023-04-03T02:44:52;6.50;99.90
41630;DHT22;27322;49.488;8.480;2023-04-03T02:47:18;6.50;99.90
41630;DHT22;27322;49.488;8.480;2023-04-03T02:49:43;6.50;99.90
41630;DHT22;27322;49.488;8.480;2023-04-03T02:52:11;6.40;99.90
41630;DHT22;27322;49.488;8.480;2023-04-03T02:54:37;6.40;99.90
41630;DHT22;27322;49.488;8.480;2023-04-03T02:57:03;6.40;99.90
41630;DHT22;27322;49.488;8.480;2023-04-03T02:59:28;6.40;99.90
41630;DHT22;27322;49.488;8.480;2023-04-03T03:01:54;6.40;99.90
41630;DHT22;27322;49.488;8.480;2023-04-03T03:04:21;6.40;99.90
41630;DHT22;27322;49.488;8.480;2023-04-03T03:06:46;6.30;99.90
41630;DHT22;27322;49.488;8.480;2023-04-03T03:09:13;6.30;99.90
41630;DHT22;27322;49.488;8.480;2023-04-03T03:11:39;6.30;99.90
41630;DHT22;27322;49.488;8.480;2023-04-03T03:14:04;6.30;99.90
41630;DHT22;27322;49.488;8.480;2023-04-03T03:16:30;6.30;99.90
41630;DHT22;27322;49.488;8.480;2023-04-03T03:18:56;6.30;99.90
41630;DHT22;27322;49.488;8.480;2023-04-03T03:21:22;6.30;99.90
41630;DHT22;27322;49.488;8.480;2023-04-03T03:23:48;6.30;99.90
41630;DHT22;27322;49.488;8.480;2023-04-03T03:26:13;6.30;99.90
41630;DHT22;27322;49.488;8.480;2023-04-03T03:28:39;6.20;99.90
41630;DHT22;27322;49.488;8.480;2023-04-03T03:31:06;6.20;99.90
41630;DHT22;27322;49.488;8.480;2023-04-03T03:33:32;6.20;99.90
41630;DHT22;27322;49.488;8.480;2023-04-03T03:35:58;6.20;99.90
41630;DHT22;27322;49.488;8.480;2023-04-03T03:38:24;6.10;99.90
41630;DHT22;27322;49.488;8.480;2023-04-03T03:40:50;6.20;99.90
41630;DHT22;27322;49.488;8.480;2023-04-03T03:43:17;6.10;99.90
41630;DHT22;27322;49.488;8.480;2023-04-03T03:45:43;6.10;99.90
41630;DHT22;27322;49.488;8.480;2023-04-03T03:48:09;6.10;99.90
41630;DHT22;27322;49.488;8.480;2023-04-03T03:50:35;6.00;99.90
41630;DHT22;27322;49.488;8.480;2023-04-03T03:53:01;6.00;99.90
41630;DHT22;27322;49.488;8.480;2023-04-03T03:55:26;6.00;99.90
41630;DHT22;27322;49.488;8.480;2023-04-03T03:57:52;6.00;99.90
41630;DHT22;27322;49.488;8.480;2023-04-03T04:00:18;6.00;99.90
41630;DHT22;27322;49.488;8.480;2023-04-03T04:02:43;6.00;99.90
41630;DHT22;27322;49.488;8.480;2023-04-03T04:05:09;6.00;99.90
41630;DHT22;27322;49.488;8.480;2023-04-03T04:07:35;6.00;99.90
41630;DHT22;27322;49.488;8.480;2023-04-03T04:10:01;5.90;99.90
41630;DHT22;27322;49.488;8.480;2023-04-03T04:12:26;6.00;99.90
41630;DHT22;27322;49.488;8.480;2023-04-03T04:14:52;6.00;99.90
41630;DHT22;27322;49.488;8.480;2023-04-03T04:17:18;5.90;99.90
41630;DHT22;27322;49.488;8.480;2023-04-03T04:19:45;5.90;99.90
41630;DHT22;27322;49.488;8.480;2023-04-03T04:22:10;5.90;99.90
41630;DHT22;27322;49.488;8.480;2023-04-03T04:24:36;5.90;99.90
41630;DHT22;27322;49.488;8.480;2023-04-03T04:27:02;5.90;99.90
41630;DHT22;27322;49.488;8.480;2023-04-03T04:29:28;5.90;99.90
41630;DHT22;27322;49.488;8.480;2023-04-03T04:31:53;5.90;99.90
41630;DHT22;27322;49.488;8.480;2023-04-03T04:34:19;5.90;99.90
41630;DHT22;27322;49.488;8.480;2023-04-03T04:36:45;5.90;99.90
41630;DHT22;27322;49.488;8.480;2023-04-03T04:39:11;5.80;99.90
41630;DHT22;27322;49.488;8.480;2023-04-03T04:41:36;5.90;99.90
41630;DHT22;27322;49.488;8.480;2023-04-03T04:44:02;5.80;99.90
41630;DHT22;27322;49.488;8.480;2023-04-03T04:46:28;5.80;99.90
41630;DHT22;27322;49.488;8.480;2023-04-03T04:48:53;5.80;99.90
41630;DHT22;27322;49.488;8.480;2023-04-03T04:51:19;5.80;99.90
41630;DHT22;27322;49.488;8.480;2023-04-03T04:53:45;5.80;99.90
41630;DHT22;27322;49.488;8.480;2023-04-03T04:56:11;5.80;99.90
41630;DHT22;27322;49.488;8.480;2023-04-03T04:58:37;5.80;99.90
41630;DHT22;27322;49.488;8.480;2023-04-03T05:01:07;5.80;99.90
41630;DHT22;27322;49.488;8.480;2023-04-03T05:03:32;5.80;99.90
41630;DHT22;27322;49.488;8.480;2023-04-03T05:05:58;5.90;99.90
41630;DHT22;27322;49.488;8.480;2023-04-03T05:08:24;5.90;99.90
41630;DHT22;27322;49.488;8.480;2023-04-03T05:10:50;5.90;99.90
41630;DHT22;27322;49.488;8.480;2023-04-03T05:13:16;5.90;99.90
41630;DHT22;27322;49.488;8.480;2023-04-03T05:15:42;5.90;99.90
41630;DHT22;27322;49.488;8.480;2023-04-03T05:18:08;5.90;99.90
41630;DHT22;27322;49.488;8.480;2023-04-03T05:20:34;5.90;99.90
41630;DHT22;27322;49.488;8.480;2023-04-03T05:23:00;5.90;99.90
41630;DHT22;27322;49.488;8.480;2023-04-03T05:25:26;5.90;99.90
41630;DHT22;27322;49.488;8.480;2023-04-03T05:27:51;5.80;99.90
41630;DHT22;27322;49.488;8.480;2023-04-03T05:30:17;5.90;99.90
41630;DHT22;27322;49.488;8.480;2023-04-03T05:32:43;5.80;99.90
41630;DHT22;27322;49.488;8.480;2023-04-03T05:35:09;5.80;99.90
41630;DHT22;27322;49.488;8.480;2023-04-03T05:37:35;5.80;99.90
41630;DHT22;27322;49.488;8.480;2023-04-03T05:40:05;5.80;99.90
41630;DHT22;27322;49.488;8.480;2023-04-03T05:42:31;5.80;99.90
41630;DHT22;27322;49.488;8.480;2023-04-03T05:44:56;5.90;99.90
41630;DHT22;27322;49.488;8.480;2023-04-03T05:47:22;5.90;99.90
41630;DHT22;27322;49.488;8.480;2023-04-03T05:49:48;5.90;99.90
41630;DHT22;27322;49.488;8.480;2023-04-03T05:54:48;5.80;99.90
41630;DHT22;27322;49.488;8.480;2023-04-03T05:57:17;5.80;99.90
41630;DHT22;27322;49.488;8.480;2023-04-03T05:59:44;5.80;99.90
41630;DHT22;27322;49.488;8.480;2023-04-03T06:02:21;5.80;99.90
41630;DHT22;27322;49.488;8.480;2023-04-03T06:04:47;5.90;99.90
41630;DHT22;27322;49.488;8.480;2023-04-03T06:07:16;5.90;99.90
41630;DHT22;27322;49.488;8.480;2023-04-03T06:09:42;5.80;99.90
41630;DHT22;27322;49.488;8.480;2023-04-03T06:12:08;5.80;99.90
41630;DHT22;27322;49.488;8.480;2023-04-03T06:14:34;5.90;99.90
41630;DHT22;27322;49.488;8.480;2023-04-03T06:16:59;5.80;99.90
41630;DHT22;27322;49.488;8.480;2023-04-03T06:19:25;5.80;99.90
41630;DHT22;27322;49.488;8.480;2023-04-03T06:21:51;5.90;99.90
41630;DHT22;27322;49.488;8.480;2023-04-03T06:24:18;5.90;99.90
41630;DHT22;27322;49.488;8.480;2023-04-03T06:26:45;5.90;99.90
41630;DHT22;27322;49.488;8.480;2023-04-03T06:29:11;5.90;99.90
41630;DHT22;27322;49.488;8.480;2023-04-03T06:31:36;5.90;99.90
41630;DHT22;27322;49.488;8.480;2023-04-03T06:34:03;6.00;99.90
41630;DHT22;27322;49.488;8.480;2023-04-03T06:36:29;6.00;99.90
41630;DHT22;27322;49.488;8.480;2023-04-03T06:38:55;6.10;99.90
41630;DHT22;27322;49.488;8.480;2023-04-03T06:41:21;6.10;99.90
41630;DHT22;27322;49.488;8.480;2023-04-03T06:43:47;6.10;99.90
41630;DHT22;27322;49.488;8.480;2023-04-03T06:46:17;6.20;99.90
41630;DHT22;27322;49.488;8.480;2023-04-03T06:48:44;6.20;99.90
41630;DHT22;27322;49.488;8.480;2023-04-03T06:51:22;6.30;99.90
41630;DHT22;27322;49.488;8.480;2023-04-03T06:53:49;6.30;99.90
41630;DHT22;27322;49.488;8.480;2023-04-03T06:56:16;6.40;99.90
41630;DHT22;27322;49.488;8.480;2023-04-03T06:58:42;6.40;99.90
41630;DHT22;27322;49.488;8.480;2023-04-03T07:01:09;6.50;99.90
41630;DHT22;27322;49.488;8.480;2023-04-03T07:03:35;6.50;99.90
41630;DHT22;27322;49.488;8.480;2023-04-03T07:06:02;6.60;99.90
41630;DHT22;27322;49.488;8.480;2023-04-03T07:08:29;6.60;99.90
41630;DHT22;27322;49.488;8.480;2023-04-03T07:10:54;6.60;99.90
41630;DHT22;27322;49.488;8.480;2023-04-03T07:13:20;6.70;99.90
41630;DHT22;27322;49.488;8.480;2023-04-03T07:15:45;6.80;99.90
41630;DHT22;27322;49.488;8.480;2023-04-03T07:18:11;6.80;99.90
41630;DHT22;27322;49.488;8.480;2023-04-03T07:20:38;6.90;99.90
41630;DHT22;27322;49.488;8.480;2023-04-03T07:23:03;6.90;99.90
41630;DHT22;27322;49.488;8.480;2023-04-03T07:25:29;7.00;99.90
41630;DHT22;27322;49.488;8.480;2023-04-03T07:27:55;7.00;99.90
41630;DHT22;27322;49.488;8.480;2023-04-03T07:30:21;7.10;99.90
41630;DHT22;27322;49.488;8.480;2023-04-03T07:32:47;7.10;99.90
41630;DHT22;27322;49.488;8.480;2023-04-03T07:35:13;7.10;99.90
41630;DHT22;27322;49.488;8.480;2023-04-03T07:37:38;7.20;99.90
41630;DHT22;27322;49.488;8.480;2023-04-03T07:40:05;7.30;99.90
41630;DHT22;27322;49.488;8.480;2023-04-03T07:42:32;7.30;99.90
41630;DHT22;27322;49.488;8.480;2023-04-03T07:44:57;7.40;99.90
41630;DHT22;27322;49.488;8.480;2023-04-03T07:47:23;7.40;99.90
41630;DHT22;27322;49.488;8.480;2023-04-03T07:49:49;7.50;99.90
41630;DHT22;27322;49.488;8.480;2023-04-03T07:52:14;7.50;99.90
41630;DHT22;27322;49.488;8.480;2023-04-03T07:54:41;7.50;99.90
41630;DHT22;27322;49.488;8.480;2023-04-03T07:57:07;7.50;99.90
41630;DHT22;27322;49.488;8.480;2023-04-03T07:59:33;7.50;99.90
41630;DHT22;27322;49.488;8.480;2023-04-03T08:01:59;7.60;99.90
41630;DHT22;27322;49.488;8.480;2023-04-03T08:04:24;7.60;99.90
41630;DHT22;27322;49.488;8.480;2023-04-03T08:06:51;7.60;99.90
41630;DHT22;27322;49.488;8.480;2023-04-03T08:09:18;7.70;99.90
41630;DHT22;27322;49.488;8.480;2023-04-03T08:11:44;7.80;99.90
41630;DHT22;27322;49.488;8.480;2023-04-03T08:14:10;7.80;99.90
41630;DHT22;27322;49.488;8.480;2023-04-03T08:16:42;7.80;99.90
41630;DHT22;27322;49.488;8.480;2023-04-03T08:19:08;7.90;99.90
41630;DHT22;27322;49.488;8.480;2023-04-03T08:21:34;8.00;99.90
41630;DHT22;27322;49.488;8.480;2023-04-03T08:23:59;8.00;99.90
41630;DHT22;27322;49.488;8.480;2023-04-03T08:26:25;8.10;99.90
41630;DHT22;27322;49.488;8.480;2023-04-03T08:28:52;8.10;99.90
41630;DHT22;27322;49.488;8.480;2023-04-03T08:31:19;8.20;99.90
41630;DHT22;27322;49.488;8.480;2023-04-03T08:33:45;8.30;99.90
41630;DHT22;27322;49.488;8.480;2023-04-03T08:36:23;8.30;99.90
41630;DHT22;27322;49.488;8.480;2023-04-03T08:38:50;8.40;99.90
41630;DHT22;27322;49.488;8.480;2023-04-03T08:41:31;8.40;99.90
41630;DHT22;27322;49.488;8.480;2023-04-03T08:46:47;8.50;99.90
41630;DHT22;27322;49.488;8.480;2023-04-03T08:49:44;8.60;99.90
41630;DHT22;27322;49.488;8.480;2023-04-03T08:52:18;8.60;99.90
41630;DHT22;27322;49.488;8.480;2023-04-03T08:54:52;8.60;99.00
41630;DHT22;27322;49.488;8.480;2023-04-03T08:57:31;8.70;99.60
41630;DHT22;27322;49.488;8.480;2023-04-03T09:00:01;8.80;99.90
41630;DHT22;27322;49.488;8.480;2023-04-03T09:02:43;8.80;99.90
41630;DHT22;27322;49.488;8.480;2023-04-03T09:05:15;8.90;98.50
41630;DHT22;27322;49.488;8.480;2023-04-03T09:08:07;8.80;99.30
41630;DHT22;27322;49.488;8.480;2023-04-03T09:10:37;8.90;96.50
41630;DHT22;27322;49.488;8.480;2023-04-03T09:16:06;9.00;97.20
41630;DHT22;27322;49.488;8.480;2023-04-03T09:18:45;9.00;97.20
41630;DHT22;27322;49.488;8.480;2023-04-03T09:21:34;9.10;96.60
41630;DHT22;27322;49.488;8.480;2023-04-03T09:24:05;9.10;94.00
41630;DHT22;27322;49.488;8.480;2023-04-03T09:26:34;9.10;94.20
41630;DHT22;27322;49.488;8.480;2023-04-03T09:29:05;9.10;92.20
41630;DHT22;27322;49.488;8.480;2023-04-03T09:31:40;9.20;93.10
41630;DHT22;27322;49.488;8.480;2023-04-03T09:36:50;9.20;92.50
41630;DHT22;27322;49.488;8.480;2023-04-03T09:39:23;9.30;92.90
41630;DHT22;27322;49.488;8.480;2023-04-03T09:42:03;9.30;92.50
41630;DHT22;27322;49.488;8.480;2023-04-03T09:44:32;9.40;91.70
41630;DHT22;27322;49.488;8.480;2023-04-03T09:46:58;9.50;92.40
41630;DHT22;27322;49.488;8.480;2023-04-03T09:49:24;9.60;92.20
41630;DHT22;27322;49.488;8.480;2023-04-03T09:51:50;9.70;92.40
41630;DHT22;27322;49.488;8.480;2023-04-03T09:56:56;10.10;87.80
41630;DHT22;27322;49.488;8.480;2023-04-03T09:59:23;10.40;88.00
41630;DHT22;27322;49.488;8.480;2023-04-03T10:02:00;10.70;86.60
41630;DHT22;27322;49.488;8.480;2023-04-03T10:04:38;10.90;85.50
41630;DHT22;27322;49.488;8.480;2023-04-03T10:07:32;11.10;82.60
41630;DHT22;27322;49.488;8.480;2023-04-03T10:10:00;11.30;81.30
41630;DHT22;27322;49.488;8.480;2023-04-03T10:12:27;11.70;80.50
41630;DHT22;27322;49.488;8.480;2023-04-03T10:28:06;12.70;68.10
41630;DHT22;27322;49.488;8.480;2023-04-03T10:30:47;12.40;68.70
41630;DHT22;27322;49.488;8.480;2023-04-03T10:36:12;12.60;67.40
41630;DHT22;27322;49.488;8.480;2023-04-03T10:46:49;12.70;64.00
41630;DHT22;27322;49.488;8.480;2023-04-03T10:52:36;12.20;63.00
41630;DHT22;27322;49.488;8.480;2023-04-03T10:57:48;11.60;65.30
41630;DHT22;27322;49.488;8.480;2023-04-03T11:00:39;11.40;67.00
41630;DHT22;27322;49.488;8.480;2023-04-03T11:05:44;11.10;66.10
41630;DHT22;27322;49.488;8.480;2023-04-03T11:11:05;10.80;69.10
41630;DHT22;27322;49.488;8.480;2023-04-03T11:13:52;10.70;68.40
41630;DHT22;27322;49.488;8.480;2023-04-03T11:16:24;10.70;69.80
41630;DHT22;27322;49.488;8.480;2023-04-03T11:21:43;10.70;70.80
41630;DHT22;27322;49.488;8.480;2023-04-03T11:24:37;10.70;69.10
41630;DHT22;27322;49.488;8.480;2023-04-03T11:27:06;10.80;68.20
41630;DHT22;27322;49.488;8.480;2023-04-03T11:29:37;10.80;68.10
41630;DHT22;27322;49.488;8.480;2023-04-03T11:34:56;10.80;66.90
41630;DHT22;27322;49.488;8.480;2023-04-03T11:37:37;10.70;67.90
41630;DHT22;27322;49.488;8.480;2023-04-03T11:43:06;10.70;71.50
41630;DHT22;27322;49.488;8.480;2023-04-03T11:45:52;10.80;71.70
41630;DHT22;27322;49.488;8.480;2023-04-03T11:53:38;10.90;71.10
41630;DHT22;27322;49.488;8.480;2023-04-03T12:04:19;10.70;68.20
41630;DHT22;27322;49.488;8.480;2023-04-03T12:09:27;10.60;70.00
41630;DHT22;27322;49.488;8.480;2023-04-03T12:11:54;10.60;70.30
41630;DHT22;27322;49.488;8.480;2023-04-03T12:14:22;10.60;70.30
41630;DHT22;27322;49.488;8.480;2023-04-03T12:16:50;10.60;70.60
41630;DHT22;27322;49.488;8.480;2023-04-03T12:19:37;10.50;69.50
41630;DHT22;27322;49.488;8.480;2023-04-03T12:22:16;10.60;68.30
41630;DHT22;27322;49.488;8.480;2023-04-03T12:24:47;10.50;67.70
41630;DHT22;27322;49.488;8.480;2023-04-03T12:27:21;10.50;69.60
41630;DHT22;27322;49.488;8.480;2023-04-03T12:35:28;10.60;70.00
41630;DHT22;27322;49.488;8.480;2023-04-03T12:43:36;10.60;69.20
41630;DHT22;27322;49.488;8.480;2023-04-03T12:51:47;10.40;71.20
41630;DHT22;27322;49.488;8.480;2023-04-03T12:57:18;10.40;68.50
41630;DHT22;27322;49.488;8.480;2023-04-03T12:59:44;10.40;68.50
41630;DHT22;27322;49.488;8.480;2023-04-03T13:02:32;10.30;67.20
41630;DHT22;27322;49.488;8.480;2023-04-03T13:05:06;10.40;68.20
41630;DHT22;27322;49.488;8.480;2023-04-03T13:07:37;10.40;67.00
41630;DHT22;27322;49.488;8.480;2023-04-03T13:10:15;10.40;66.60
41630;DHT22;27322;49.488;8.480;2023-04-03T13:15:25;10.50;68.50
41630;DHT22;27322;49.488;8.480;2023-04-03T13:17:54;10.50;66.80
41630;DHT22;27322;49.488;8.480;2023-04-03T13:20:29;10.50;67.00
41630;DHT22;27322;49.488;8.480;2023-04-03T13:23:00;10.40;69.00
41630;DHT22;27322;49.488;8.480;2023-04-03T13:25:29;10.40;70.90
41630;DHT22;27322;49.488;8.480;2023-04-03T13:27:58;10.50;72.00
41630;DHT22;27322;49.488;8.480;2023-04-03T13:30:31;10.50;72.30
41630;DHT22;27322;49.488;8.480;2023-04-03T13:33:00;10.50;70.90
41630;DHT22;27322;49.488;8.480;2023-04-03T13:35:34;10.50;71.00
41630;DHT22;27322;49.488;8.480;2023-04-03T13:40:56;10.40;70.90
41630;DHT22;27322;49.488;8.480;2023-04-03T13:43:27;10.40;70.40
41630;DHT22;27322;49.488;8.480;2023-04-03T13:48:21;10.40;69.20
41630;DHT22;27322;49.488;8.480;2023-04-03T13:50:55;10.30;69.20
41630;DHT22;27322;49.488;8.480;2023-04-03T13:53:22;10.30;69.90
41630;DHT22;27322;49.488;8.480;2023-04-03T13:58:27;10.30;69.50
41630;DHT22;27322;49.488;8.480;2023-04-03T14:01:17;10.40;69.90
41630;DHT22;27322;49.488;8.480;2023-04-03T14:06:14;10.30;67.10
41630;DHT22;27322;49.488;8.480;2023-04-03T14:08:41;10.30;68.10
41630;DHT22;27322;49.488;8.480;2023-04-03T14:11:16;10.20;68.00
41630;DHT22;27322;49.488;8.480;2023-04-03T14:13:44;10.20;69.20
41630;DHT22;27322;49.488;8.480;2023-04-03T14:16:22;10.20;68.50
41630;DHT22;27322;49.488;8.480;2023-04-03T14:18:49;10.30;67.20
41630;DHT22;27322;49.488;8.480;2023-04-03T14:21:20;10.30;65.30
41630;DHT22;27322;49.488;8.480;2023-04-03T14:23:46;10.30;65.90
41630;DHT22;27322;49.488;8.480;2023-04-03T14:26:14;10.50;66.80
41630;DHT22;27322;49.488;8.480;2023-04-03T14:28:42;10.60;67.10
41630;DHT22;27322;49.488;8.480;2023-04-03T14:31:10;10.60;66.80
41630;DHT22;27322;49.488;8.480;2023-04-03T14:33:36;10.60;65.70
41630;DHT22;27322;49.488;8.480;2023-04-03T14:36:15;10.60;66.50
41630;DHT22;27322;49.488;8.480;2023-04-03T14:38:43;10.50;67.50
41630;DHT22;27322;49.488;8.480;2023-04-03T14:41:14;10.50;67.30
41630;DHT22;27322;49.488;8.480;2023-04-03T14:43:41;10.50;64.70
41630;DHT22;27322;49.488;8.480;2023-04-03T14:46:13;10.50;62.80
41630;DHT22;27322;49.488;8.480;2023-04-03T14:48:39;10.50;63.70
41630;DHT22;27322;49.488;8.480;2023-04-03T14:51:05;10.40;63.30
41630;DHT22;27322;49.488;8.480;2023-04-03T14:53:31;10.40;63.70
41630;DHT22;27322;49.488;8.480;2023-04-03T14:55:58;10.40;64.30
41630;DHT22;27322;49.488;8.480;2023-04-03T14:58:23;10.50;62.90
41630;DHT22;27322;49.488;8.480;2023-04-03T15:00:49;10.50;63.50
41630;DHT22;27322;49.488;8.480;2023-04-03T15:03:17;10.50;64.10
41630;DHT22;27322;49.488;8.480;2023-04-03T15:05:44;10.50;62.80
41630;DHT22;27322;49.488;8.480;2023-04-03T15:08:22;10.50;63.10
41630;DHT22;27322;49.488;8.480;2023-04-03T15:10:50;10.60;62.60
41630;DHT22;27322;49.488;8.480;2023-04-03T15:13:18;10.50;63.50
41630;DHT22;27322;49.488;8.480;2023-04-03T15:15:44;10.50;63.50
41630;DHT22;27322;49.488;8.480;2023-04-03T15:18:24;10.50;64.70
41630;DHT22;27322;49.488;8.480;2023-04-03T15:20:54;10.50;64.60
41630;DHT22;27322;49.488;8.480;2023-04-03T15:23:21;10.50;62.00
41630;DHT22;27322;49.488;8.480;2023-04-03T15:25:52;10.50;61.20
41630;DHT22;27322;49.488;8.480;2023-04-03T15:28:24;10.50;60.40
41630;DHT22;27322;49.488;8.480;2023-04-03T15:30:53;10.50;61.80
41630;DHT22;27322;49.488;8.480;2023-04-03T15:33:19;10.50;62.30
41630;DHT22;27322;49.488;8.480;2023-04-03T15:35:44;10.50;61.80
41630;DHT22;27322;49.488;8.480;2023-04-03T15:38:10;10.50;60.70
41630;DHT22;27322;49.488;8.480;2023-04-03T15:40:36;10.40;60.20
41630;DHT22;27322;49.488;8.480;2023-04-03T15:43:02;10.40;58.90
41630;DHT22;27322;49.488;8.480;2023-04-03T15:45:31;10.40;59.90
41630;DHT22;27322;49.488;8.480;2023-04-03T15:47:57;10.40;60.80
41630;DHT22;27322;49.488;8.480;2023-04-03T15:50:23;10.40;60.70
41630;DHT22;27322;49.488;8.480;2023-04-03T15:52:50;10.30;60.80
41630;DHT22;27322;49.488;8.480;2023-04-03T15:55:21;10.30;62.60
41630;DHT22;27322;49.488;8.480;2023-04-03T15:57:47;10.30;63.00
41630;DHT22;27322;49.488;8.480;2023-04-03T16:00:13;10.30;62.60
41630;DHT22;27322;49.488;8.480;2023-04-03T16:02:39;10.30;64.00
41630;DHT22;27322;49.488;8.480;2023-04-03T16:05:05;10.30;64.50
41630;DHT22;27322;49.488;8.480;2023-04-03T16:07:31;10.30;64.10
41630;DHT22;27322;49.488;8.480;2023-04-03T16:09:57;10.30;64.00
41630;DHT22;27322;49.488;8.480;2023-04-03T16:12:23;10.30;64.80
41630;DHT22;27322;49.488;8.480;2023-04-03T16:14:48;10.30;64.90
41630;DHT22;27322;49.488;8.480;2023-04-03T16:17:14;10.30;65.60
41630;DHT22;27322;49.488;8.480;2023-04-03T16:19:40;10.30;65.30
41630;DHT22;27322;49.488;8.480;2023-04-03T16:22:05;10.30;65.10
41630;DHT22;27322;49.488;8.480;2023-04-03T16:24:31;10.30;64.40
41630;DHT22;27322;49.488;8.480;2023-04-03T16:26:57;10.30;64.20
41630;DHT22;27322;49.488;8.480;2023-04-03T16:29:23;10.30;63.90
41630;DHT22;27322;49.488;8.480;2023-04-03T16:31:49;10.30;64.80
41630;DHT22;27322;49.488;8.480;2023-04-03T16:34:15;10.20;64.40
41630;DHT22;27322;49.488;8.480;2023-04-03T16:36:41;10.20;65.30
41630;DHT22;27322;49.488;8.480;2023-04-03T16:39:07;10.20;65.40
41630;DHT22;27322;49.488;8.480;2023-04-03T16:41:35;10.20;65.10
41630;DHT22;27322;49.488;8.480;2023-04-03T16:44:00;10.10;63.40
41630;DHT22;27322;49.488;8.480;2023-04-03T16:46:26;10.10;61.50
41630;DHT22;27322;49.488;8.480;2023-04-03T16:48:52;10.10;62.70
41630;DHT22;27322;49.488;8.480;2023-04-03T16:51:17;10.10;63.40
41630;DHT22;27322;49.488;8.480;2023-04-03T16:53:43;10.00;64.00
41630;DHT22;27322;49.488;8.480;2023-04-03T16:56:09;10.00;64.60
41630;DHT22;27322;49.488;8.480;2023-04-03T16:58:34;10.00;65.10
41630;DHT22;27322;49.488;8.480;2023-04-03T17:01:12;10.00;65.10
41630;DHT22;27322;49.488;8.480;2023-04-03T17:03:39;10.00;63.60
41630;DHT22;27322;49.488;8.480;2023-04-03T17:06:04;9.90;64.40
41630;DHT22;27322;49.488;8.480;2023-04-03T17:08:30;9.90;65.00
41630;DHT22;27322;49.488;8.480;2023-04-03T17:10:56;9.90;65.70
41630;DHT22;27322;49.488;8.480;2023-04-03T17:13:22;9.80;65.30
41630;DHT22;27322;49.488;8.480;2023-04-03T17:15:47;9.90;65.50
41630;DHT22;27322;49.488;8.480;2023-04-03T17:18:13;9.80;66.00
41630;DHT22;27322;49.488;8.480;2023-04-03T17:20:39;9.80;65.10
41630;DHT22;27322;49.488;8.480;2023-04-03T17:23:05;9.80;65.90
41630;DHT22;27322;49.488;8.480;2023-04-03T17:25:31;9.70;64.50
41630;DHT22;27322;49.488;8.480;2023-04-03T17:27:57;9.70;65.10
41630;DHT22;27322;49.488;8.480;2023-04-03T17:30:22;9.70;65.00
41630;DHT22;27322;49.488;8.480;2023-04-03T17:32:48;9.70;64.30
41630;DHT22;27322;49.488;8.480;2023-04-03T17:35:14;9.60;65.30
41630;DHT22;27322;49.488;8.480;2023-04-03T17:37:40;9.60;65.80